createdAt,value
2023-03-03T00:01:20.253Z,1.60
2023-03-03T00:03:47.342Z,1.60
2023-03-03T00:06:14.877Z,1.60
2023-03-03T00:08:42.060Z,1.60
2023-03-03T00:11:10.311Z,1.50
2023-03-03T00:13:51.773Z,1.50
2023-03-03T00:16:39.716Z,1.50
2023-03-03T00:19:19.259Z,1.50
2023-03-03T00:21:48.745Z,1.50
2023-03-03T00:24:18.137Z,1.50
2023-03-03T00:27:31.379Z,1.60
2023-03-03T00:30:00.469Z,1.60
2023-03-03T00:32:47.334Z,1.50
2023-03-03T00:35:30.653Z,1.60
2023-03-03T00:38:01.334Z,1.60
2023-03-03T00:40:36.159Z,1.60
2023-03-03T00:43:19.253Z,1.60
2023-03-03T00:45:48.221Z,1.70
2023-03-03T00:48:30.597Z,1.60
2023-03-03T00:50:59.450Z,1.70
2023-03-03T00:53:29.667Z,1.60
2023-03-03T00:55:57.972Z,1.70
2023-03-03T00:58:26.066Z,1.70
2023-03-03T01:00:56.842Z,1.70
2023-03-03T01:03:30.199Z,1.70
2023-03-03T01:05:57.459Z,1.70
2023-03-03T01:08:24.832Z,1.70
2023-03-03T01:10:54.536Z,1.70
2023-03-03T01:13:24.961Z,1.60
2023-03-03T01:15:52.293Z,1.50
2023-03-03T01:18:20.277Z,1.50
2023-03-03T01:20:47.621Z,1.50
2023-03-03T01:23:14.618Z,1.50
2023-03-03T01:25:41.651Z,1.50
2023-03-03T01:28:08.989Z,1.50
2023-03-03T01:30:36.659Z,1.40
2023-03-03T01:33:03.911Z,1.50
2023-03-03T01:35:31.072Z,1.50
2023-03-03T01:37:59.007Z,1.50
2023-03-03T01:40:29.041Z,1.60
2023-03-03T01:42:57.912Z,1.50
2023-03-03T01:45:30.573Z,1.60
2023-03-03T01:47:57.648Z,1.60
2023-03-03T01:50:55.201Z,1.70
2023-03-03T01:53:28.611Z,1.70
2023-03-03T01:55:55.786Z,1.70
2023-03-03T01:58:33.762Z,1.70
2023-03-03T02:01:02.149Z,1.70
2023-03-03T02:03:29.910Z,1.70
2023-03-03T02:06:01.791Z,1.60
2023-03-03T02:08:48.988Z,1.60
2023-03-03T02:11:16.862Z,1.50
2023-03-03T02:13:43.810Z,1.50
2023-03-03T02:16:10.841Z,1.50
2023-03-03T02:18:38.566Z,1.60
2023-03-03T02:21:10.702Z,1.50
2023-03-03T02:23:49.664Z,1.60
2023-03-03T02:26:23.853Z,1.50
2023-03-03T02:28:56.287Z,1.60
2023-03-03T02:31:26.394Z,1.60
2023-03-03T02:33:55.828Z,1.60
2023-03-03T02:36:25.546Z,1.50
2023-03-03T02:38:59.989Z,1.50
2023-03-03T02:41:30.611Z,1.50
2023-03-03T02:44:01.391Z,1.50
2023-03-03T02:46:32.927Z,1.50
2023-03-03T02:49:01.050Z,1.50
2023-03-03T02:51:28.229Z,1.60
2023-03-03T02:53:57.689Z,1.60
2023-03-03T02:56:27.245Z,1.60
2023-03-03T02:58:54.418Z,1.60
2023-03-03T03:01:22.401Z,1.60
2023-03-03T03:03:51.099Z,1.60
2023-03-03T03:06:21.057Z,1.70
2023-03-03T03:08:48.297Z,1.70
2023-03-03T03:11:15.230Z,1.70
2023-03-03T03:13:42.318Z,1.70
2023-03-03T03:16:10.170Z,1.70
2023-03-03T03:18:37.154Z,1.60
2023-03-03T03:21:12.340Z,1.60
2023-03-03T03:23:40.968Z,1.70
2023-03-03T03:26:08.742Z,1.60
2023-03-03T03:28:36.156Z,1.60
2023-03-03T03:31:05.234Z,1.60
2023-03-03T03:33:33.869Z,1.50
2023-03-03T03:36:01.258Z,1.40
2023-03-03T03:38:29.962Z,1.50
2023-03-03T03:40:57.062Z,1.40
2023-03-03T03:43:24.101Z,1.50
2023-03-03T03:45:51.227Z,1.50
2023-03-03T03:48:20.130Z,1.60
2023-03-03T03:50:49.425Z,1.60
2023-03-03T03:53:18.115Z,1.60
2023-03-03T03:55:46.491Z,1.60
2023-03-03T03:58:17.074Z,1.60
2023-03-03T04:00:48.271Z,1.50
2023-03-03T04:03:17.829Z,1.50
2023-03-03T04:05:46.884Z,1.50
2023-03-03T04:08:14.169Z,1.60
2023-03-03T04:10:42.705Z,1.50
2023-03-03T04:13:12.077Z,1.50
2023-03-03T04:15:39.453Z,1.50
2023-03-03T04:18:06.805Z,1.60
2023-03-03T04:20:33.780Z,1.60
2023-03-03T04:23:01.874Z,1.60
2023-03-03T04:25:30.601Z,1.60
2023-03-03T04:27:57.669Z,1.60
2023-03-03T04:30:26.910Z,1.60
2023-03-03T04:32:56.652Z,1.60
2023-03-03T04:35:26.016Z,1.60
2023-03-03T04:37:53.901Z,1.50
2023-03-03T04:40:21.293Z,1.50
2023-03-03T04:42:50.369Z,1.40
2023-03-03T04:45:17.841Z,1.40
2023-03-03T04:47:45.981Z,1.40
2023-03-03T04:50:14.004Z,1.40
2023-03-03T04:52:41.557Z,1.40
2023-03-03T04:55:10.590Z,1.40
2023-03-03T04:57:38.788Z,1.40
2023-03-03T05:00:06.756Z,1.40
2023-03-03T05:02:33.920Z,1.40
2023-03-03T05:05:01.297Z,1.50
2023-03-03T05:07:28.241Z,1.50
2023-03-03T05:09:55.386Z,1.50
2023-03-03T05:12:22.585Z,1.50
2023-03-03T05:14:49.524Z,1.60
2023-03-03T05:17:16.527Z,1.60
2023-03-03T05:19:43.406Z,1.60
2023-03-03T05:22:10.531Z,1.50
2023-03-03T05:24:37.521Z,1.50
2023-03-03T05:27:04.404Z,1.50
2023-03-03T05:29:31.747Z,1.50
2023-03-03T05:31:58.956Z,1.40
2023-03-03T05:34:25.960Z,1.40
2023-03-03T05:36:52.906Z,1.30
2023-03-03T05:39:19.859Z,1.40
2023-03-03T05:41:46.761Z,1.40
2023-03-03T05:44:13.629Z,1.50
2023-03-03T05:46:40.479Z,1.50
2023-03-03T05:49:07.426Z,1.50
2023-03-03T05:51:34.647Z,1.50
2023-03-03T05:54:01.694Z,1.50
2023-03-03T05:56:28.578Z,1.60
2023-03-03T05:58:56.154Z,1.60
2023-03-03T06:01:23.093Z,1.60
2023-03-03T06:03:49.976Z,1.60
2023-03-03T06:06:19.222Z,1.60
2023-03-03T06:08:46.375Z,1.60
2023-03-03T06:11:13.754Z,1.60
2023-03-03T06:13:42.734Z,1.60
2023-03-03T06:16:09.793Z,1.60
2023-03-03T06:18:37.160Z,1.60
2023-03-03T06:21:04.154Z,1.60
2023-03-03T06:23:31.180Z,1.60
2023-03-03T06:25:58.354Z,1.60
2023-03-03T06:28:25.689Z,1.60
2023-03-03T06:30:56.535Z,1.60
2023-03-03T06:33:23.908Z,1.60
2023-03-03T06:35:52.141Z,1.50
2023-03-03T06:38:19.450Z,1.50
2023-03-03T06:40:47.591Z,1.50
2023-03-03T06:43:14.697Z,1.50
2023-03-03T06:45:41.958Z,1.50
2023-03-03T06:48:09.132Z,1.50
2023-03-03T06:50:36.207Z,1.40
2023-03-03T06:53:15.328Z,1.50
2023-03-03T06:55:44.937Z,1.60
2023-03-03T06:58:14.943Z,1.60
2023-03-03T07:00:50.583Z,1.60
2023-03-03T07:03:21.968Z,1.60
2023-03-03T07:05:49.172Z,1.50
2023-03-03T07:08:21.370Z,1.60
2023-03-03T07:10:49.449Z,1.60
2023-03-03T07:13:26.806Z,1.60
2023-03-03T07:15:55.390Z,1.50
2023-03-03T07:18:37.119Z,1.50
2023-03-03T07:21:32.867Z,1.50
2023-03-03T07:24:02.052Z,1.40
2023-03-03T07:26:33.038Z,1.40
2023-03-03T07:29:28.859Z,1.40
2023-03-03T07:31:58.137Z,1.40
2023-03-03T07:34:44.673Z,1.50
2023-03-03T07:37:39.024Z,1.60
2023-03-03T07:40:32.380Z,1.60
2023-03-03T07:42:59.515Z,1.60
2023-03-03T07:45:40.861Z,1.60
2023-03-03T07:48:18.775Z,1.60
2023-03-03T07:50:45.820Z,1.80
2023-03-03T07:53:29.257Z,1.80
2023-03-03T07:55:56.382Z,1.90
2023-03-03T07:58:35.947Z,1.80
2023-03-03T08:01:31.738Z,1.90
2023-03-03T08:03:58.918Z,1.90
2023-03-03T08:06:37.689Z,2.00
2023-03-03T08:09:10.784Z,2.10
2023-03-03T08:11:53.460Z,2.10
2023-03-03T08:14:30.070Z,2.10
2023-03-03T08:17:00.515Z,2.10
2023-03-03T08:19:31.196Z,2.20
2023-03-03T08:22:15.666Z,2.10
2023-03-03T08:24:42.569Z,2.10
2023-03-03T08:27:09.483Z,2.10
2023-03-03T08:29:36.340Z,2.00
2023-03-03T08:32:03.455Z,2.10
2023-03-03T08:34:30.428Z,2.20
2023-03-03T08:36:58.502Z,2.30
2023-03-03T08:39:25.497Z,2.40
2023-03-03T08:41:52.380Z,2.30
2023-03-03T08:44:20.550Z,2.30
2023-03-03T08:46:47.731Z,2.30
2023-03-03T08:49:14.849Z,2.40
2023-03-03T08:51:41.956Z,2.50
2023-03-03T08:54:09.419Z,2.40
2023-03-03T08:56:36.548Z,2.40
2023-03-03T08:59:03.692Z,2.50
2023-03-03T09:01:32.842Z,2.50
2023-03-03T09:04:00.041Z,2.40
2023-03-03T09:06:27.440Z,2.50
2023-03-03T09:08:54.965Z,2.50
2023-03-03T09:11:27.861Z,2.50
2023-03-03T09:14:04.811Z,2.60
2023-03-03T09:16:37.365Z,2.70
2023-03-03T09:19:37.491Z,2.60
2023-03-03T09:22:28.013Z,2.40
2023-03-03T09:24:59.005Z,2.50
2023-03-03T09:27:30.357Z,2.60
2023-03-03T09:30:02.666Z,2.60
2023-03-03T09:32:42.537Z,2.40
2023-03-03T09:35:31.339Z,2.40
2023-03-03T09:37:58.189Z,2.60
2023-03-03T09:40:42.908Z,2.70
2023-03-03T09:43:17.281Z,2.60
2023-03-03T09:45:51.199Z,2.70
2023-03-03T09:48:39.514Z,2.80
2023-03-03T09:51:31.291Z,3.00
2023-03-03T09:54:05.411Z,3.10
2023-03-03T09:56:37.828Z,3.00
2023-03-03T09:59:22.760Z,3.20
2023-03-03T10:02:24.759Z,3.30
2023-03-03T10:05:14.334Z,3.20
2023-03-03T10:07:49.499Z,3.30
2023-03-03T10:10:31.850Z,3.30
2023-03-03T10:13:15.632Z,3.20
2023-03-03T10:16:13.822Z,3.20
2023-03-03T10:19:01.812Z,3.40
2023-03-03T10:21:37.376Z,3.60
2023-03-03T10:24:21.133Z,3.70
2023-03-03T10:27:09.890Z,3.60
2023-03-03T10:29:59.293Z,3.50
2023-03-03T10:32:53.815Z,3.40
2023-03-03T10:35:35.965Z,3.60
2023-03-03T10:38:23.342Z,3.70
2023-03-03T10:41:14.046Z,3.80
2023-03-03T10:44:19.446Z,3.80
2023-03-03T10:46:56.244Z,3.90
2023-03-03T10:49:28.754Z,4.10
2023-03-03T10:52:23.624Z,4.10
2023-03-03T10:55:10.493Z,4.30
2023-03-03T10:58:02.266Z,4.10
2023-03-03T11:00:36.076Z,4.10
2023-03-03T11:03:36.662Z,4.20
2023-03-03T11:06:12.992Z,4.40
2023-03-03T11:08:53.264Z,4.10
2023-03-03T11:11:49.141Z,4.30
2023-03-03T11:14:38.131Z,4.50
2023-03-03T11:17:11.309Z,4.70
2023-03-03T11:20:02.601Z,4.60
2023-03-03T11:23:00.074Z,4.40
2023-03-03T11:25:46.491Z,4.50
2023-03-03T11:28:13.356Z,4.80
2023-03-03T11:30:54.296Z,4.90
2023-03-03T11:33:46.870Z,4.70
2023-03-03T11:36:19.092Z,4.70
2023-03-03T11:39:02.077Z,5.00
2023-03-03T11:41:58.171Z,5.10
2023-03-03T11:44:37.321Z,4.90
2023-03-03T11:47:22.965Z,5.40
2023-03-03T11:49:52.656Z,5.50
2023-03-03T11:52:28.335Z,5.60
2023-03-03T11:55:17.534Z,6.10
2023-03-03T11:57:53.316Z,6.10
2023-03-03T12:00:45.587Z,6.10
2023-03-03T12:03:19.715Z,5.70
2023-03-03T12:06:10.313Z,5.80
2023-03-03T12:08:59.881Z,5.70
2023-03-03T12:12:02.684Z,5.90
2023-03-03T12:14:33.110Z,6.10
2023-03-03T12:17:11.622Z,6.30
2023-03-03T12:20:00.118Z,6.20
2023-03-03T12:22:31.127Z,6.10
2023-03-03T12:25:26.604Z,6.80
2023-03-03T12:28:17.756Z,6.80
2023-03-03T12:30:56.306Z,7.00
2023-03-03T12:33:43.444Z,7.30
2023-03-03T12:36:21.391Z,7.20
2023-03-03T12:39:11.937Z,7.20
2023-03-03T12:42:03.873Z,7.20
2023-03-03T12:44:45.024Z,7.20
2023-03-03T12:47:38.030Z,7.70
2023-03-03T12:50:10.957Z,7.90
2023-03-03T12:52:57.690Z,8.50
2023-03-03T12:55:51.836Z,8.90
2023-03-03T12:58:30.829Z,8.10
2023-03-03T13:00:57.931Z,8.40
2023-03-03T13:03:54.938Z,8.30
2023-03-03T13:06:22.746Z,8.40
2023-03-03T13:08:58.885Z,8.30
2023-03-03T13:11:51.236Z,8.50
2023-03-03T13:14:26.172Z,8.60
2023-03-03T13:17:17.871Z,8.20
2023-03-03T13:19:54.668Z,8.40
2023-03-03T13:22:50.591Z,8.30
2023-03-03T13:25:45.338Z,8.70
2023-03-03T13:28:40.545Z,9.00
2023-03-03T13:31:21.812Z,8.90
2023-03-03T13:34:00.344Z,9.10
2023-03-03T13:36:56.962Z,9.10
2023-03-03T13:39:28.652Z,8.70
2023-03-03T13:42:17.997Z,8.00
2023-03-03T13:44:49.166Z,8.10
2023-03-03T13:47:50.786Z,8.40
2023-03-03T13:50:27.245Z,8.80
2023-03-03T13:53:05.741Z,8.90
2023-03-03T13:55:38.261Z,8.70
2023-03-03T13:58:34.528Z,8.90
2023-03-03T14:01:09.271Z,9.00
2023-03-03T14:03:36.246Z,9.30
2023-03-03T14:06:14.925Z,9.30
2023-03-03T14:08:48.463Z,9.20
2023-03-03T14:11:21.280Z,9.20
2023-03-03T14:13:51.584Z,8.70
2023-03-03T14:16:34.763Z,8.80
2023-03-03T14:19:17.542Z,8.90
2023-03-03T14:22:06.369Z,9.00
2023-03-03T14:25:06.264Z,9.00
2023-03-03T14:28:03.161Z,9.00
2023-03-03T14:30:42.261Z,8.70
2023-03-03T14:33:11.826Z,8.30
2023-03-03T14:35:56.332Z,8.20
2023-03-03T14:38:32.605Z,8.30
2023-03-03T14:41:11.996Z,8.20
2023-03-03T14:43:40.567Z,8.20
2023-03-03T14:46:37.914Z,8.00
2023-03-03T14:49:28.480Z,7.80
2023-03-03T14:52:03.503Z,7.70
2023-03-03T14:54:38.660Z,7.70
2023-03-03T14:57:46.446Z,7.70
2023-03-03T15:00:13.837Z,7.40
2023-03-03T15:02:53.055Z,7.40
2023-03-03T15:05:26.123Z,7.60
2023-03-03T15:08:09.109Z,7.40
2023-03-03T15:10:44.341Z,7.30
2023-03-03T15:13:20.684Z,7.30
2023-03-03T15:16:16.656Z,6.90
2023-03-03T15:19:01.664Z,6.60
2023-03-03T15:21:35.042Z,6.60
2023-03-03T15:24:20.276Z,6.70
2023-03-03T15:27:03.520Z,6.70
2023-03-03T15:29:37.252Z,6.70
2023-03-03T15:32:31.045Z,6.70
2023-03-03T15:35:14.961Z,6.70
2023-03-03T15:38:12.228Z,6.60
2023-03-03T15:40:49.248Z,6.60
2023-03-03T15:43:27.069Z,6.40
2023-03-03T15:46:21.912Z,6.20
2023-03-03T15:49:39.759Z,6.10
2023-03-03T15:52:34.516Z,5.80
2023-03-03T15:55:38.407Z,5.80
2023-03-03T15:58:33.252Z,5.80
2023-03-03T16:01:29.797Z,5.70
2023-03-03T16:04:12.272Z,5.70
2023-03-03T16:07:01.434Z,5.80
2023-03-03T16:10:04.081Z,5.70
2023-03-03T16:12:43.345Z,5.60
2023-03-03T16:15:35.143Z,5.50
2023-03-03T16:18:04.801Z,5.30
2023-03-03T16:20:50.674Z,5.20
2023-03-03T16:23:47.814Z,5.10
2023-03-03T16:26:26.938Z,5.00
2023-03-03T16:29:08.724Z,4.90
2023-03-03T16:32:06.432Z,4.90
2023-03-03T16:34:55.695Z,4.80
2023-03-03T16:37:39.844Z,4.70
2023-03-03T16:40:23.532Z,4.60
2023-03-03T16:43:00.984Z,4.50
2023-03-03T16:45:34.203Z,4.50
2023-03-03T16:48:16.155Z,4.40
2023-03-03T16:51:08.639Z,4.30
2023-03-03T16:53:59.828Z,4.20
2023-03-03T16:56:43.328Z,4.10
2023-03-03T16:59:20.564Z,4.00
2023-03-03T17:01:47.510Z,3.90
2023-03-03T17:04:45.255Z,3.80
2023-03-03T17:07:39.976Z,3.70
2023-03-03T17:10:31.761Z,3.70
2023-03-03T17:13:07.438Z,3.80
2023-03-03T17:15:50.045Z,3.70
2023-03-03T17:18:28.783Z,3.60
2023-03-03T17:21:01.330Z,3.60
2023-03-03T17:23:52.759Z,3.50
2023-03-03T17:26:45.804Z,3.50
2023-03-03T17:29:36.598Z,3.40
2023-03-03T17:32:25.763Z,3.40
2023-03-03T17:35:31.536Z,3.30
2023-03-03T17:38:50.500Z,3.20
2023-03-03T17:41:35.305Z,3.20
2023-03-03T17:44:28.723Z,3.20
2023-03-03T17:47:12.605Z,3.10
2023-03-03T17:49:51.533Z,3.00
2023-03-03T17:52:36.548Z,3.00
2023-03-03T17:55:27.954Z,2.90
2023-03-03T17:58:22.553Z,2.80
2023-03-03T18:01:10.984Z,2.90
2023-03-03T18:03:43.725Z,2.90
2023-03-03T18:06:29.164Z,2.80
2023-03-03T18:09:14.843Z,2.80
2023-03-03T18:12:01.113Z,2.70
2023-03-03T18:14:29.718Z,2.70
2023-03-03T18:17:21.416Z,2.80
2023-03-03T18:20:17.097Z,2.80
2023-03-03T18:22:44.086Z,2.80
2023-03-03T18:25:12.372Z,2.90
2023-03-03T18:27:47.937Z,2.90
2023-03-03T18:30:20.738Z,2.90
2023-03-03T18:32:56.748Z,2.90
2023-03-03T18:35:38.730Z,3.00
2023-03-03T18:38:17.951Z,3.10
2023-03-03T18:40:58.157Z,3.10
2023-03-03T18:43:40.194Z,3.20
2023-03-03T18:46:20.137Z,3.30
2023-03-03T18:49:08.360Z,3.40
2023-03-03T18:51:35.461Z,3.40
2023-03-03T18:54:30.986Z,3.50
2023-03-03T18:56:58.354Z,3.50
2023-03-03T18:59:31.306Z,3.50
2023-03-03T19:02:13.637Z,3.50
2023-03-03T19:04:49.119Z,3.50
2023-03-03T19:07:39.270Z,3.50
2023-03-03T19:10:21.770Z,3.50
2023-03-03T19:12:53.294Z,3.60
2023-03-03T19:15:35.993Z,3.60
2023-03-03T19:18:13.794Z,3.60
2023-03-03T19:20:49.011Z,3.60
2023-03-03T19:23:19.944Z,3.60
2023-03-03T19:26:06.865Z,3.60
2023-03-03T19:28:45.829Z,3.60
2023-03-03T19:31:33.923Z,3.60
2023-03-03T19:34:13.722Z,3.60
2023-03-03T19:36:40.700Z,3.60
2023-03-03T19:39:22.697Z,3.60
2023-03-03T19:42:08.212Z,3.60
2023-03-03T19:44:44.079Z,3.60
2023-03-03T19:47:16.964Z,3.70
2023-03-03T19:49:59.104Z,3.70
2023-03-03T19:52:44.740Z,3.70
2023-03-03T19:55:20.657Z,3.70
2023-03-03T19:58:17.716Z,3.70
2023-03-03T20:00:49.834Z,3.70
2023-03-03T20:03:34.075Z,3.70
2023-03-03T20:06:30.087Z,3.70
2023-03-03T20:09:08.937Z,3.70
2023-03-03T20:11:53.270Z,3.70
2023-03-03T20:15:00.739Z,3.70
2023-03-03T20:17:30.916Z,3.70
2023-03-03T20:20:06.813Z,3.70
2023-03-03T20:23:02.375Z,3.70
2023-03-03T20:25:35.242Z,3.70
2023-03-03T20:28:21.487Z,3.70
2023-03-03T20:31:19.344Z,3.70
2023-03-03T20:34:13.300Z,3.70
2023-03-03T20:36:53.677Z,3.70
2023-03-03T20:39:38.834Z,3.80
2023-03-03T20:42:42.850Z,3.70
2023-03-03T20:45:21.175Z,3.70
2023-03-03T20:47:50.989Z,3.70
2023-03-03T20:50:51.076Z,3.70
2023-03-03T20:53:29.259Z,3.60
2023-03-03T20:56:15.693Z,3.60
2023-03-03T20:59:01.796Z,3.60
2023-03-03T21:01:53.303Z,3.60
2023-03-03T21:04:23.120Z,3.70
2023-03-03T21:06:51.055Z,3.60
2023-03-03T21:09:24.206Z,3.70
2023-03-03T21:11:51.344Z,3.70
2023-03-03T21:14:31.793Z,3.70
2023-03-03T21:17:02.702Z,3.70
2023-03-03T21:19:30.829Z,3.70
2023-03-03T21:22:01.989Z,3.70
2023-03-03T21:24:48.693Z,3.70
2023-03-03T21:27:31.772Z,3.70
2023-03-03T21:30:08.084Z,3.70
2023-03-03T21:32:44.075Z,3.70
2023-03-03T21:35:23.557Z,3.70
2023-03-03T21:37:56.472Z,3.70
2023-03-03T21:40:30.675Z,3.60
2023-03-03T21:43:00.055Z,3.60
2023-03-03T21:45:27.681Z,3.60
2023-03-03T21:47:55.178Z,3.60
2023-03-03T21:50:22.555Z,3.60
2023-03-03T21:52:49.614Z,3.70
2023-03-03T21:55:16.654Z,3.60
2023-03-03T21:57:43.578Z,3.70
2023-03-03T22:00:11.253Z,3.70
2023-03-03T22:02:38.208Z,3.60
2023-03-03T22:05:07.514Z,3.70
2023-03-03T22:07:34.774Z,3.70
2023-03-03T22:10:01.781Z,3.70
2023-03-03T22:12:28.697Z,3.70
2023-03-03T22:14:55.626Z,3.80
2023-03-03T22:17:25.530Z,3.70
2023-03-03T22:19:52.894Z,3.70
2023-03-03T22:22:19.850Z,3.70
2023-03-03T22:24:46.808Z,3.70
2023-03-03T22:27:14.632Z,3.70
2023-03-03T22:29:41.530Z,3.70
2023-03-03T22:32:08.772Z,3.70
2023-03-03T22:34:36.027Z,3.80
2023-03-03T22:37:02.995Z,3.80
2023-03-03T22:39:29.968Z,3.80
2023-03-03T22:41:56.875Z,3.80
2023-03-03T22:44:23.868Z,3.80
2023-03-03T22:46:50.753Z,3.80
2023-03-03T22:49:17.706Z,3.90
2023-03-03T22:51:44.585Z,3.90
2023-03-03T22:54:11.522Z,3.90
2023-03-03T22:56:38.413Z,3.90
2023-03-03T22:59:05.345Z,3.90
2023-03-03T23:01:32.274Z,3.90
2023-03-03T23:03:59.208Z,3.90
2023-03-03T23:06:26.104Z,3.90
2023-03-03T23:08:52.994Z,4.00
2023-03-03T23:11:19.850Z,4.00
2023-03-03T23:13:46.775Z,4.00
2023-03-03T23:16:13.711Z,4.00
2023-03-03T23:18:40.738Z,4.00
2023-03-03T23:21:07.793Z,4.00
2023-03-03T23:23:34.708Z,4.00
2023-03-03T23:26:01.606Z,4.00
2023-03-03T23:28:28.580Z,4.00
2023-03-03T23:30:55.530Z,4.00
2023-03-03T23:33:22.519Z,4.00
2023-03-03T23:35:49.936Z,4.00
2023-03-03T23:38:17.730Z,4.10
2023-03-03T23:40:46.812Z,4.10
2023-03-03T23:43:14.516Z,4.10
2023-03-03T23:45:41.818Z,4.10
2023-03-03T23:48:09.017Z,4.10
2023-03-03T23:50:39.232Z,4.10
2023-03-03T23:53:07.178Z,4.10
2023-03-03T23:55:34.796Z,4.10
2023-03-03T23:58:01.778Z,4.10
